createdAt,value
2022-12-13T00:02:15.166Z,98769.56
2022-12-13T00:07:19.593Z,98759.63
2022-12-13T00:12:22.546Z,98763.28
2022-12-13T00:17:26.713Z,98757.84
2022-12-13T00:22:31.033Z,98755.56
2022-12-13T00:27:34.012Z,98754.75
2022-12-13T00:32:36.902Z,98753.47
2022-12-13T00:37:41.179Z,98758.53
2022-12-13T00:42:44.104Z,98752.03
2022-12-13T00:47:48.172Z,98758.41
2022-12-13T00:52:52.483Z,98755.03
2022-12-13T00:57:55.420Z,98752.81
2022-12-13T01:02:58.409Z,98752.97
2022-12-13T01:08:02.808Z,98749.72
2022-12-13T01:13:05.754Z,98751.69
2022-12-13T01:18:09.028Z,98756.75
2022-12-13T01:23:13.299Z,98744.88
2022-12-13T01:28:16.214Z,98735.53
2022-12-13T01:33:19.158Z,98732.66
2022-12-13T01:38:26.256Z,98733.44
2022-12-13T01:43:49.837Z,98731.84
2022-12-13T01:49:00.204Z,98729.50
2022-12-13T01:54:07.637Z,98738.53
2022-12-13T01:59:13.818Z,98738.53
2022-12-13T02:04:20.206Z,98737.41
2022-12-13T02:09:24.928Z,98740.97
2022-12-13T02:14:27.851Z,98739.19
2022-12-13T02:20:02.679Z,98734.25
2022-12-13T02:25:36.809Z,98732.97
2022-12-13T02:30:43.948Z,98727.59
2022-12-13T02:35:53.842Z,98726.75
2022-12-13T02:41:05.403Z,98724.81
2022-12-13T02:46:12.601Z,98736.44
2022-12-13T02:51:16.835Z,98740.66
2022-12-13T02:56:20.212Z,98718.25
2022-12-13T03:01:39.952Z,98722.00
2022-12-13T03:06:56.180Z,98724.84
2022-12-13T03:12:28.228Z,98731.75
2022-12-13T03:17:39.005Z,98733.72
2022-12-13T03:22:41.918Z,98729.84
2022-12-13T03:27:45.137Z,98727.84
2022-12-13T03:32:49.484Z,98723.03
2022-12-13T03:37:52.626Z,98724.13
2022-12-13T03:42:55.716Z,98705.41
2022-12-13T03:47:59.973Z,98708.44
2022-12-13T03:53:04.169Z,98702.88
2022-12-13T03:58:08.133Z,98696.63
2022-12-13T04:03:12.866Z,98697.94
2022-12-13T04:08:21.761Z,98705.91
2022-12-13T04:13:34.253Z,98705.53
2022-12-13T04:18:38.542Z,98704.50
2022-12-13T04:23:41.483Z,98702.41
2022-12-13T04:28:49.363Z,98707.06
2022-12-13T04:33:56.894Z,98705.94
2022-12-13T04:39:00.643Z,98705.81
2022-12-13T04:44:04.908Z,98698.72
2022-12-13T04:49:09.232Z,98708.00
2022-12-13T04:54:24.501Z,98701.94
2022-12-13T04:59:27.720Z,98706.25
2022-12-13T05:04:33.381Z,98708.78
2022-12-13T05:09:37.175Z,98703.31
2022-12-13T05:14:40.044Z,98715.09
2022-12-13T05:19:44.435Z,98716.03
2022-12-13T05:24:47.353Z,98728.97
2022-12-13T05:29:50.286Z,98724.19
2022-12-13T05:34:54.586Z,98719.03
2022-12-13T05:39:57.454Z,98722.66
2022-12-13T05:45:00.342Z,98721.78
2022-12-13T05:50:05.184Z,98724.09
2022-12-13T05:55:08.628Z,98725.06
2022-12-13T06:00:30.092Z,98724.19
2022-12-13T06:05:35.478Z,98724.16
2022-12-13T06:10:39.012Z,98730.31
2022-12-13T06:15:44.435Z,98739.75
2022-12-13T06:20:57.245Z,98725.13
2022-12-13T06:26:00.399Z,98727.38
2022-12-13T06:31:05.020Z,98737.94
2022-12-13T06:36:10.324Z,98731.63
2022-12-13T06:41:14.761Z,98743.88
2022-12-13T06:46:17.754Z,98748.03
2022-12-13T06:51:22.434Z,98744.66
2022-12-13T06:56:26.081Z,98747.59
2022-12-13T07:01:37.069Z,98751.34
2022-12-13T07:06:42.367Z,98753.22
2022-12-13T07:11:50.005Z,98752.81
2022-12-13T07:17:01.420Z,98759.63
2022-12-13T07:22:08.320Z,98764.22
2022-12-13T07:27:11.246Z,98766.69
2022-12-13T07:32:14.430Z,98768.09
2022-12-13T07:37:30.294Z,98767.94
2022-12-13T07:42:34.206Z,98777.88
2022-12-13T07:47:37.751Z,98778.78
2022-12-13T07:52:42.185Z,98778.28
2022-12-13T07:57:45.111Z,98785.72
2022-12-13T08:02:48.036Z,98786.63
2022-12-13T08:07:52.496Z,98782.44
2022-12-13T08:12:55.462Z,98782.13
2022-12-13T08:18:00.771Z,98779.41
2022-12-13T08:23:05.060Z,98777.09
2022-12-13T08:28:08.128Z,98780.06
2022-12-13T08:33:11.117Z,98776.47
2022-12-13T08:38:15.518Z,98778.00
2022-12-13T08:43:26.799Z,98783.41
2022-12-13T08:48:30.019Z,98776.91
2022-12-13T08:53:41.180Z,98775.22
2022-12-13T08:58:44.459Z,98778.88
2022-12-13T09:03:47.390Z,98772.16
2022-12-13T09:08:54.575Z,98764.72
2022-12-13T09:14:01.271Z,98768.75
2022-12-13T09:19:06.690Z,98773.88
2022-12-13T09:24:36.493Z,98778.28
2022-12-13T09:29:40.166Z,98771.75
2022-12-13T09:34:43.159Z,98777.53
2022-12-13T09:39:55.128Z,98776.69
2022-12-13T09:45:03.782Z,98768.53
2022-12-13T09:50:15.153Z,98753.84
2022-12-13T09:55:23.826Z,98751.56
2022-12-13T10:00:36.142Z,98745.63
2022-12-13T10:05:40.651Z,98744.69
2022-12-13T10:10:45.491Z,98749.94
2022-12-13T10:15:52.106Z,98740.72
2022-12-13T10:20:56.191Z,98732.75
2022-12-13T10:26:02.903Z,98730.38
2022-12-13T10:31:06.804Z,98720.00
2022-12-13T10:36:16.459Z,98716.28
2022-12-13T10:41:32.764Z,98698.78
2022-12-13T10:46:38.237Z,98703.13
2022-12-13T10:51:41.933Z,98699.97
2022-12-13T10:56:49.439Z,98701.13
2022-12-13T11:01:55.089Z,98709.56
2022-12-13T11:06:59.887Z,98696.75
2022-12-13T11:12:12.901Z,98690.22
2022-12-13T11:17:20.744Z,98680.81
2022-12-13T11:22:26.977Z,98679.69
2022-12-13T11:27:48.156Z,98682.16
2022-12-13T11:33:10.547Z,98678.94
2022-12-13T11:38:22.509Z,98672.34
2022-12-13T11:43:32.906Z,98676.34
2022-12-13T11:48:43.775Z,98674.63
2022-12-13T11:53:56.334Z,98672.41
2022-12-13T11:59:17.375Z,98676.38
2022-12-13T12:04:33.020Z,98676.78
2022-12-13T12:09:40.011Z,98679.16
2022-12-13T12:14:52.981Z,98678.25
2022-12-13T12:19:58.469Z,98670.81
2022-12-13T12:25:23.050Z,98668.53
2022-12-13T12:30:35.334Z,98670.69
2022-12-13T12:35:59.535Z,98668.84
2022-12-13T12:41:29.642Z,98670.44
2022-12-13T12:47:08.631Z,98668.41
2022-12-13T12:52:21.357Z,98665.06
2022-12-13T12:57:32.077Z,98670.72
2022-12-13T13:02:44.448Z,98663.63
2022-12-13T13:07:51.777Z,98659.69
2022-12-13T13:13:12.490Z,98658.13
2022-12-13T13:18:46.115Z,98665.50
2022-12-13T13:23:49.354Z,98666.63
2022-12-13T13:28:52.621Z,98667.31
2022-12-13T13:33:57.196Z,98661.50
2022-12-13T13:39:01.280Z,98660.66
2022-12-13T13:44:55.269Z,98657.63
2022-12-13T13:50:11.096Z,98661.69
2022-12-13T13:55:44.880Z,98671.56
2022-12-13T14:01:28.496Z,98678.28
2022-12-13T14:07:13.695Z,98686.34
2022-12-13T14:13:02.948Z,98694.50
2022-12-13T14:18:43.397Z,98682.06
2022-12-13T14:24:00.191Z,98679.16
2022-12-13T14:29:11.556Z,98689.97
2022-12-13T14:34:23.402Z,98692.28
2022-12-13T14:39:29.391Z,98686.53
2022-12-13T14:44:35.288Z,98691.47
2022-12-13T14:49:42.016Z,98686.34
2022-12-13T14:54:58.463Z,98683.78
2022-12-13T15:00:25.832Z,98689.63
2022-12-13T15:05:31.378Z,98682.22
2022-12-13T15:10:40.715Z,98677.81
2022-12-13T15:15:45.072Z,98676.19
2022-12-13T15:20:49.904Z,98672.25
2022-12-13T15:26:00.183Z,98674.47
2022-12-13T15:31:06.872Z,98668.91
2022-12-13T15:36:14.558Z,98670.97
2022-12-13T15:41:19.758Z,98675.50
2022-12-13T15:46:27.749Z,98677.59
2022-12-13T15:51:31.449Z,98676.88
2022-12-13T15:56:36.534Z,98683.50
2022-12-13T16:01:41.123Z,98679.06
2022-12-13T16:06:52.697Z,98675.59
2022-12-13T16:11:58.455Z,98676.59
2022-12-13T16:17:08.523Z,98690.38
2022-12-13T16:22:11.796Z,98683.72
2022-12-13T16:27:14.763Z,98683.41
2022-12-13T16:32:19.112Z,98680.47
2022-12-13T16:37:27.453Z,98680.91
2022-12-13T16:42:31.739Z,98668.63
2022-12-13T16:47:41.881Z,98664.47
2022-12-13T16:52:51.342Z,98659.22
2022-12-13T16:57:58.973Z,98648.03
2022-12-13T17:03:03.908Z,98642.22
2022-12-13T17:08:07.042Z,98649.03
2022-12-13T17:13:10.041Z,98650.78
2022-12-13T17:18:14.389Z,98647.31
2022-12-13T17:23:18.643Z,98643.84
2022-12-13T17:28:21.630Z,98659.22
2022-12-13T17:33:26.250Z,98645.06
2022-12-13T17:38:29.475Z,98643.34
2022-12-13T17:43:35.239Z,98650.06
2022-12-13T17:48:41.293Z,98641.44
2022-12-13T17:53:45.519Z,98641.47
2022-12-13T17:58:48.545Z,98642.56
2022-12-13T18:03:55.839Z,98644.41
2022-12-13T18:08:58.920Z,98642.16
2022-12-13T18:14:02.089Z,98632.41
2022-12-13T18:19:07.884Z,98632.91
2022-12-13T18:24:12.642Z,98639.75
2022-12-13T18:29:15.655Z,98627.84
2022-12-13T18:34:19.928Z,98624.41
2022-12-13T18:39:22.992Z,98633.66
2022-12-13T18:44:28.251Z,98628.25
2022-12-13T18:49:32.496Z,98626.19
2022-12-13T18:54:35.509Z,98628.81
2022-12-13T18:59:38.498Z,98627.13
2022-12-13T19:04:54.828Z,98618.25
2022-12-13T19:09:58.703Z,98614.63
2022-12-13T19:15:02.470Z,98607.22
2022-12-13T19:20:08.408Z,98618.09
2022-12-13T19:25:11.495Z,98618.72
2022-12-13T19:30:14.772Z,98636.31
2022-12-13T19:35:19.195Z,98620.81
2022-12-13T19:40:22.308Z,98623.09
2022-12-13T19:45:25.263Z,98611.06
2022-12-13T19:50:29.792Z,98607.88
2022-12-13T19:55:33.334Z,98600.19
2022-12-13T20:00:36.289Z,98599.69
2022-12-13T20:05:45.481Z,98599.41
2022-12-13T20:10:48.776Z,98602.03
2022-12-13T20:15:51.902Z,98606.47
2022-12-13T20:21:12.933Z,98604.84
2022-12-13T20:26:18.097Z,98603.78
2022-12-13T20:31:23.012Z,98603.78
2022-12-13T20:36:28.961Z,98606.66
2022-12-13T20:41:34.215Z,98596.88
2022-12-13T20:46:37.638Z,98598.00
2022-12-13T20:51:42.920Z,98604.78
2022-12-13T20:56:45.865Z,98598.19
2022-12-13T21:01:49.258Z,98597.91
2022-12-13T21:06:53.672Z,98586.34
2022-12-13T21:11:56.984Z,98577.75
2022-12-13T21:17:01.302Z,98581.41
2022-12-13T21:22:05.568Z,98572.13
2022-12-13T21:27:08.523Z,98575.13
2022-12-13T21:32:11.442Z,98571.19
2022-12-13T21:37:17.639Z,98567.06
2022-12-13T21:42:20.550Z,98554.94
2022-12-13T21:47:23.699Z,98551.69
2022-12-13T21:52:27.973Z,98543.78
2022-12-13T21:57:48.129Z,98528.28
2022-12-13T22:02:51.000Z,98527.13
2022-12-13T22:07:55.231Z,98535.31
2022-12-13T22:12:58.183Z,98524.72
2022-12-13T22:18:01.029Z,98530.81
2022-12-13T22:23:05.274Z,98523.25
2022-12-13T22:28:08.177Z,98516.94
2022-12-13T22:33:11.071Z,98520.34
2022-12-13T22:38:15.379Z,98512.84
2022-12-13T22:43:20.698Z,98512.03
2022-12-13T22:48:24.233Z,98512.34
2022-12-13T22:53:29.082Z,98498.44
2022-12-13T22:58:32.321Z,98488.72
2022-12-13T23:03:35.296Z,98483.59
2022-12-13T23:08:43.411Z,98484.53
2022-12-13T23:13:48.296Z,98469.97
2022-12-13T23:19:05.197Z,98471.09
2022-12-13T23:24:17.937Z,98469.06
2022-12-13T23:29:20.953Z,98464.94
2022-12-13T23:34:23.886Z,98454.34
2022-12-13T23:39:28.299Z,98448.59
2022-12-13T23:44:31.351Z,98443.00
2022-12-13T23:49:34.224Z,98435.91
2022-12-13T23:54:38.528Z,98428.69
2022-12-13T23:59:41.442Z,98431.72
